sensor_id;sensor_type;location;lat;lon;timestamp;temperature;humidity
21176;DHT22;10746;50.178;8.186;2023-05-07T00:01:19;13.40;99.90
21176;DHT22;10746;50.178;8.186;2023-05-07T00:03:46;13.40;99.90
21176;DHT22;10746;50.178;8.186;2023-05-07T00:06:14;13.20;99.90
21176;DHT22;10746;50.178;8.186;2023-05-07T00:08:42;13.30;99.90
21176;DHT22;10746;50.178;8.186;2023-05-07T00:11:08;13.30;99.90
21176;DHT22;10746;50.178;8.186;2023-05-07T00:13:35;13.30;99.90
21176;DHT22;10746;50.178;8.186;2023-05-07T00:16:02;13.30;99.90
21176;DHT22;10746;50.178;8.186;2023-05-07T00:18:29;13.40;99.90
21176;DHT22;10746;50.178;8.186;2023-05-07T00:20:56;13.30;99.90
21176;DHT22;10746;50.178;8.186;2023-05-07T00:23:23;13.30;99.90
21176;DHT22;10746;50.178;8.186;2023-05-07T00:25:51;13.30;99.90
21176;DHT22;10746;50.178;8.186;2023-05-07T00:28:18;13.20;99.90
21176;DHT22;10746;50.178;8.186;2023-05-07T00:30:44;13.10;99.90
21176;DHT22;10746;50.178;8.186;2023-05-07T00:33:11;13.10;99.90
21176;DHT22;10746;50.178;8.186;2023-05-07T00:35:38;13.10;99.90
21176;DHT22;10746;50.178;8.186;2023-05-07T00:38:04;13.10;99.90
21176;DHT22;10746;50.178;8.186;2023-05-07T00:40:31;13.10;99.90
21176;DHT22;10746;50.178;8.186;2023-05-07T00:42:59;13.10;99.90
21176;DHT22;10746;50.178;8.186;2023-05-07T00:45:27;13.00;99.90
21176;DHT22;10746;50.178;8.186;2023-05-07T00:47:54;13.00;99.90
21176;DHT22;10746;50.178;8.186;2023-05-07T00:50:21;12.90;99.90
21176;DHT22;10746;50.178;8.186;2023-05-07T00:52:48;13.10;99.90
21176;DHT22;10746;50.178;8.186;2023-05-07T00:55:15;13.10;99.90
21176;DHT22;10746;50.178;8.186;2023-05-07T00:57:42;13.10;99.90
21176;DHT22;10746;50.178;8.186;2023-05-07T01:00:11;13.20;99.90
21176;DHT22;10746;50.178;8.186;2023-05-07T01:02:38;13.20;99.90
21176;DHT22;10746;50.178;8.186;2023-05-07T01:05:06;13.20;99.90
21176;DHT22;10746;50.178;8.186;2023-05-07T01:07:35;13.10;99.90
21176;DHT22;10746;50.178;8.186;2023-05-07T01:10:03;13.10;99.90
21176;DHT22;10746;50.178;8.186;2023-05-07T01:12:31;13.00;99.90
21176;DHT22;10746;50.178;8.186;2023-05-07T01:14:58;13.00;99.90
21176;DHT22;10746;50.178;8.186;2023-05-07T01:17:26;13.00;99.90
21176;DHT22;10746;50.178;8.186;2023-05-07T01:19:53;13.00;99.90
21176;DHT22;10746;50.178;8.186;2023-05-07T01:22:28;13.00;99.90
21176;DHT22;10746;50.178;8.186;2023-05-07T01:24:56;12.90;99.90
21176;DHT22;10746;50.178;8.186;2023-05-07T01:27:25;12.90;99.90
21176;DHT22;10746;50.178;8.186;2023-05-07T01:29:51;12.90;99.90
21176;DHT22;10746;50.178;8.186;2023-05-07T01:32:21;12.90;99.90
21176;DHT22;10746;50.178;8.186;2023-05-07T01:34:49;13.00;99.90
21176;DHT22;10746;50.178;8.186;2023-05-07T01:37:17;13.10;99.90
21176;DHT22;10746;50.178;8.186;2023-05-07T01:39:45;13.00;99.90
21176;DHT22;10746;50.178;8.186;2023-05-07T01:42:12;13.00;99.90
21176;DHT22;10746;50.178;8.186;2023-05-07T01:44:39;13.10;99.90
21176;DHT22;10746;50.178;8.186;2023-05-07T01:47:06;13.00;99.90
21176;DHT22;10746;50.178;8.186;2023-05-07T01:49:33;12.90;99.90
21176;DHT22;10746;50.178;8.186;2023-05-07T01:52:00;12.90;99.90
21176;DHT22;10746;50.178;8.186;2023-05-07T01:54:28;12.80;99.90
21176;DHT22;10746;50.178;8.186;2023-05-07T01:56:56;12.90;99.90
21176;DHT22;10746;50.178;8.186;2023-05-07T01:59:23;12.90;99.90
21176;DHT22;10746;50.178;8.186;2023-05-07T02:01:50;12.90;99.90
21176;DHT22;10746;50.178;8.186;2023-05-07T02:04:17;12.90;99.90
21176;DHT22;10746;50.178;8.186;2023-05-07T02:06:44;13.00;99.90
21176;DHT22;10746;50.178;8.186;2023-05-07T02:09:11;13.00;99.90
21176;DHT22;10746;50.178;8.186;2023-05-07T02:11:37;12.80;99.90
21176;DHT22;10746;50.178;8.186;2023-05-07T02:14:05;12.70;99.90
21176;DHT22;10746;50.178;8.186;2023-05-07T02:16:32;12.80;99.90
21176;DHT22;10746;50.178;8.186;2023-05-07T02:18:59;12.80;99.90
21176;DHT22;10746;50.178;8.186;2023-05-07T02:21:25;12.80;99.90
21176;DHT22;10746;50.178;8.186;2023-05-07T02:23:52;12.90;99.90
21176;DHT22;10746;50.178;8.186;2023-05-07T02:26:19;12.90;99.90
21176;DHT22;10746;50.178;8.186;2023-05-07T02:32:12;12.90;99.90
21176;DHT22;10746;50.178;8.186;2023-05-07T02:34:39;12.80;99.90
21176;DHT22;10746;50.178;8.186;2023-05-07T02:37:06;12.80;99.90
21176;DHT22;10746;50.178;8.186;2023-05-07T02:39:33;12.80;99.90
21176;DHT22;10746;50.178;8.186;2023-05-07T02:42:00;12.80;99.90
21176;DHT22;10746;50.178;8.186;2023-05-07T02:44:27;12.90;99.90
21176;DHT22;10746;50.178;8.186;2023-05-07T02:46:56;12.90;99.90
21176;DHT22;10746;50.178;8.186;2023-05-07T02:49:24;12.80;99.90
21176;DHT22;10746;50.178;8.186;2023-05-07T02:51:51;12.70;99.90
21176;DHT22;10746;50.178;8.186;2023-05-07T02:54:18;12.60;99.90
21176;DHT22;10746;50.178;8.186;2023-05-07T02:56:44;12.70;99.90
21176;DHT22;10746;50.178;8.186;2023-05-07T02:59:11;12.80;99.90
21176;DHT22;10746;50.178;8.186;2023-05-07T03:01:38;12.80;99.90
21176;DHT22;10746;50.178;8.186;2023-05-07T03:04:05;12.90;99.90
21176;DHT22;10746;50.178;8.186;2023-05-07T03:06:33;12.80;99.90
21176;DHT22;10746;50.178;8.186;2023-05-07T03:08:59;12.80;99.90
21176;DHT22;10746;50.178;8.186;2023-05-07T03:11:26;12.70;99.90
21176;DHT22;10746;50.178;8.186;2023-05-07T03:13:53;12.70;99.90
21176;DHT22;10746;50.178;8.186;2023-05-07T03:16:20;12.70;99.90
21176;DHT22;10746;50.178;8.186;2023-05-07T03:18:46;12.60;99.90
21176;DHT22;10746;50.178;8.186;2023-05-07T03:21:13;12.60;99.90
21176;DHT22;10746;50.178;8.186;2023-05-07T03:23:41;12.50;99.90
21176;DHT22;10746;50.178;8.186;2023-05-07T03:26:08;12.40;99.90
21176;DHT22;10746;50.178;8.186;2023-05-07T03:28:35;12.50;99.90
21176;DHT22;10746;50.178;8.186;2023-05-07T03:31:01;12.50;99.90
21176;DHT22;10746;50.178;8.186;2023-05-07T03:33:28;12.50;99.90
21176;DHT22;10746;50.178;8.186;2023-05-07T03:35:55;12.60;99.90
21176;DHT22;10746;50.178;8.186;2023-05-07T03:38:21;12.60;99.90
21176;DHT22;10746;50.178;8.186;2023-05-07T03:40:49;12.60;99.90
21176;DHT22;10746;50.178;8.186;2023-05-07T03:43:16;12.70;99.90
21176;DHT22;10746;50.178;8.186;2023-05-07T03:45:43;12.70;99.90
21176;DHT22;10746;50.178;8.186;2023-05-07T03:48:10;12.60;99.90
21176;DHT22;10746;50.178;8.186;2023-05-07T03:50:37;12.60;99.90
21176;DHT22;10746;50.178;8.186;2023-05-07T03:53:04;12.50;99.90
21176;DHT22;10746;50.178;8.186;2023-05-07T03:55:30;12.50;99.90
21176;DHT22;10746;50.178;8.186;2023-05-07T03:57:58;12.30;99.90
21176;DHT22;10746;50.178;8.186;2023-05-07T04:00:25;12.30;99.90
21176;DHT22;10746;50.178;8.186;2023-05-07T04:02:52;12.30;99.90
21176;DHT22;10746;50.178;8.186;2023-05-07T04:05:19;12.30;99.90
21176;DHT22;10746;50.178;8.186;2023-05-07T04:07:45;12.30;99.90
21176;DHT22;10746;50.178;8.186;2023-05-07T04:10:12;12.30;99.90
21176;DHT22;10746;50.178;8.186;2023-05-07T04:12:39;12.40;99.90
21176;DHT22;10746;50.178;8.186;2023-05-07T04:15:08;12.30;99.90
21176;DHT22;10746;50.178;8.186;2023-05-07T04:17:34;12.50;99.90
21176;DHT22;10746;50.178;8.186;2023-05-07T04:20:02;12.50;99.90
21176;DHT22;10746;50.178;8.186;2023-05-07T04:22:29;12.50;99.90
21176;DHT22;10746;50.178;8.186;2023-05-07T04:24:56;12.50;99.90
21176;DHT22;10746;50.178;8.186;2023-05-07T04:27:23;12.60;99.90
21176;DHT22;10746;50.178;8.186;2023-05-07T04:29:49;12.60;99.90
21176;DHT22;10746;50.178;8.186;2023-05-07T04:32:18;12.70;99.90
21176;DHT22;10746;50.178;8.186;2023-05-07T04:34:45;12.40;99.90
21176;DHT22;10746;50.178;8.186;2023-05-07T04:37:12;12.20;99.90
21176;DHT22;10746;50.178;8.186;2023-05-07T04:39:39;12.30;99.90
21176;DHT22;10746;50.178;8.186;2023-05-07T04:42:06;12.30;99.90
21176;DHT22;10746;50.178;8.186;2023-05-07T04:44:34;12.40;99.90
21176;DHT22;10746;50.178;8.186;2023-05-07T04:47:02;12.30;99.90
21176;DHT22;10746;50.178;8.186;2023-05-07T04:49:30;12.40;99.90
21176;DHT22;10746;50.178;8.186;2023-05-07T04:51:57;12.30;99.90
21176;DHT22;10746;50.178;8.186;2023-05-07T04:54:23;12.30;99.90
21176;DHT22;10746;50.178;8.186;2023-05-07T04:56:50;12.40;99.90
21176;DHT22;10746;50.178;8.186;2023-05-07T04:59:17;12.40;99.90
21176;DHT22;10746;50.178;8.186;2023-05-07T05:01:43;12.40;99.90
21176;DHT22;10746;50.178;8.186;2023-05-07T05:04:10;12.50;99.90
21176;DHT22;10746;50.178;8.186;2023-05-07T05:06:39;12.50;99.90
21176;DHT22;10746;50.178;8.186;2023-05-07T05:09:06;12.60;99.90
21176;DHT22;10746;50.178;8.186;2023-05-07T05:11:33;12.60;99.90
21176;DHT22;10746;50.178;8.186;2023-05-07T05:14:00;12.50;99.90
21176;DHT22;10746;50.178;8.186;2023-05-07T05:16:27;12.60;99.90
21176;DHT22;10746;50.178;8.186;2023-05-07T05:18:54;12.60;99.90
21176;DHT22;10746;50.178;8.186;2023-05-07T05:21:21;12.60;99.90
21176;DHT22;10746;50.178;8.186;2023-05-07T05:23:49;12.60;99.90
21176;DHT22;10746;50.178;8.186;2023-05-07T05:26:16;12.50;99.90
21176;DHT22;10746;50.178;8.186;2023-05-07T05:28:42;12.70;99.90
21176;DHT22;10746;50.178;8.186;2023-05-07T05:31:09;12.80;99.90
21176;DHT22;10746;50.178;8.186;2023-05-07T05:33:36;12.80;99.90
21176;DHT22;10746;50.178;8.186;2023-05-07T05:36:03;12.90;99.90
21176;DHT22;10746;50.178;8.186;2023-05-07T05:38:30;13.00;99.90
21176;DHT22;10746;50.178;8.186;2023-05-07T05:40:58;13.10;99.90
21176;DHT22;10746;50.178;8.186;2023-05-07T05:43:25;13.20;99.90
21176;DHT22;10746;50.178;8.186;2023-05-07T05:45:52;13.30;99.90
21176;DHT22;10746;50.178;8.186;2023-05-07T05:48:18;13.40;99.90
21176;DHT22;10746;50.178;8.186;2023-05-07T05:50:45;13.50;99.90
21176;DHT22;10746;50.178;8.186;2023-05-07T05:53:12;13.70;99.90
21176;DHT22;10746;50.178;8.186;2023-05-07T05:55:38;13.70;99.90
21176;DHT22;10746;50.178;8.186;2023-05-07T05:58:07;13.80;99.90
21176;DHT22;10746;50.178;8.186;2023-05-07T06:00:33;13.90;99.90
21176;DHT22;10746;50.178;8.186;2023-05-07T06:03:00;14.10;99.90
21176;DHT22;10746;50.178;8.186;2023-05-07T06:05:27;14.30;99.90
21176;DHT22;10746;50.178;8.186;2023-05-07T06:07:53;14.40;99.90
21176;DHT22;10746;50.178;8.186;2023-05-07T06:10:20;14.50;99.90
21176;DHT22;10746;50.178;8.186;2023-05-07T06:12:47;14.70;99.90
21176;DHT22;10746;50.178;8.186;2023-05-07T06:15:15;15.00;99.90
21176;DHT22;10746;50.178;8.186;2023-05-07T06:17:42;15.30;99.90
21176;DHT22;10746;50.178;8.186;2023-05-07T06:20:09;15.70;99.90
21176;DHT22;10746;50.178;8.186;2023-05-07T06:22:35;16.10;99.90
21176;DHT22;10746;50.178;8.186;2023-05-07T06:25:02;16.50;99.90
21176;DHT22;10746;50.178;8.186;2023-05-07T06:27:29;16.60;99.90
21176;DHT22;10746;50.178;8.186;2023-05-07T06:29:56;16.60;99.90
21176;DHT22;10746;50.178;8.186;2023-05-07T06:32:24;16.40;99.90
21176;DHT22;10746;50.178;8.186;2023-05-07T06:34:51;16.40;99.90
21176;DHT22;10746;50.178;8.186;2023-05-07T06:37:17;16.10;99.90
21176;DHT22;10746;50.178;8.186;2023-05-07T06:39:44;15.90;99.90
21176;DHT22;10746;50.178;8.186;2023-05-07T06:42:11;16.00;99.90
21176;DHT22;10746;50.178;8.186;2023-05-07T06:44:37;15.90;99.90
21176;DHT22;10746;50.178;8.186;2023-05-07T06:47:04;16.00;99.90
21176;DHT22;10746;50.178;8.186;2023-05-07T06:49:32;16.00;99.90
21176;DHT22;10746;50.178;8.186;2023-05-07T06:51:59;16.00;99.90
21176;DHT22;10746;50.178;8.186;2023-05-07T06:54:26;15.90;99.90
21176;DHT22;10746;50.178;8.186;2023-05-07T06:56:52;16.00;99.90
21176;DHT22;10746;50.178;8.186;2023-05-07T06:59:19;16.10;99.90
21176;DHT22;10746;50.178;8.186;2023-05-07T07:01:46;16.10;99.90
21176;DHT22;10746;50.178;8.186;2023-05-07T07:04:12;16.20;99.90
21176;DHT22;10746;50.178;8.186;2023-05-07T07:06:40;16.20;99.90
21176;DHT22;10746;50.178;8.186;2023-05-07T07:09:07;16.20;99.90
21176;DHT22;10746;50.178;8.186;2023-05-07T07:11:34;16.30;99.90
21176;DHT22;10746;50.178;8.186;2023-05-07T07:14:01;16.20;99.90
21176;DHT22;10746;50.178;8.186;2023-05-07T07:16:28;16.10;99.90
21176;DHT22;10746;50.178;8.186;2023-05-07T07:18:54;16.10;99.90
21176;DHT22;10746;50.178;8.186;2023-05-07T07:21:21;16.00;99.90
21176;DHT22;10746;50.178;8.186;2023-05-07T07:23:49;16.00;99.90
21176;DHT22;10746;50.178;8.186;2023-05-07T07:26:16;16.10;99.90
21176;DHT22;10746;50.178;8.186;2023-05-07T07:28:43;16.30;99.90
21176;DHT22;10746;50.178;8.186;2023-05-07T07:31:10;16.40;99.90
21176;DHT22;10746;50.178;8.186;2023-05-07T07:33:37;16.30;99.90
21176;DHT22;10746;50.178;8.186;2023-05-07T07:36:05;16.20;99.90
21176;DHT22;10746;50.178;8.186;2023-05-07T07:38:32;16.10;99.90
21176;DHT22;10746;50.178;8.186;2023-05-07T07:41:00;16.10;99.90
21176;DHT22;10746;50.178;8.186;2023-05-07T07:43:27;16.10;99.90
21176;DHT22;10746;50.178;8.186;2023-05-07T07:45:54;16.10;99.90
21176;DHT22;10746;50.178;8.186;2023-05-07T07:48:21;16.10;99.90
21176;DHT22;10746;50.178;8.186;2023-05-07T07:50:48;16.00;99.90
21176;DHT22;10746;50.178;8.186;2023-05-07T07:53:15;16.00;99.90
21176;DHT22;10746;50.178;8.186;2023-05-07T07:55:42;16.10;99.90
21176;DHT22;10746;50.178;8.186;2023-05-07T07:58:10;16.00;99.90
21176;DHT22;10746;50.178;8.186;2023-05-07T08:00:36;15.90;99.90
21176;DHT22;10746;50.178;8.186;2023-05-07T08:03:03;15.90;99.90
21176;DHT22;10746;50.178;8.186;2023-05-07T08:05:30;16.00;99.90
21176;DHT22;10746;50.178;8.186;2023-05-07T08:07:57;16.00;99.90
21176;DHT22;10746;50.178;8.186;2023-05-07T08:10:23;16.00;99.90
21176;DHT22;10746;50.178;8.186;2023-05-07T08:12:50;16.00;99.90
21176;DHT22;10746;50.178;8.186;2023-05-07T08:15:19;16.00;99.90
21176;DHT22;10746;50.178;8.186;2023-05-07T08:17:45;16.10;99.90
21176;DHT22;10746;50.178;8.186;2023-05-07T08:20:12;16.20;99.90
21176;DHT22;10746;50.178;8.186;2023-05-07T08:22:39;16.20;99.90
21176;DHT22;10746;50.178;8.186;2023-05-07T08:25:06;16.30;99.90
21176;DHT22;10746;50.178;8.186;2023-05-07T08:27:33;16.40;99.90
21176;DHT22;10746;50.178;8.186;2023-05-07T08:30:00;16.60;99.90
21176;DHT22;10746;50.178;8.186;2023-05-07T08:32:28;16.60;99.90
21176;DHT22;10746;50.178;8.186;2023-05-07T08:34:54;16.70;99.90
21176;DHT22;10746;50.178;8.186;2023-05-07T08:37:21;17.00;99.90
21176;DHT22;10746;50.178;8.186;2023-05-07T08:39:48;17.50;99.90
21176;DHT22;10746;50.178;8.186;2023-05-07T08:42:16;17.70;99.90
21176;DHT22;10746;50.178;8.186;2023-05-07T08:44:45;18.00;99.90
21176;DHT22;10746;50.178;8.186;2023-05-07T08:47:12;18.10;99.90
21176;DHT22;10746;50.178;8.186;2023-05-07T08:49:40;18.30;99.90
21176;DHT22;10746;50.178;8.186;2023-05-07T08:52:07;18.00;99.90
21176;DHT22;10746;50.178;8.186;2023-05-07T08:54:36;17.60;99.90
21176;DHT22;10746;50.178;8.186;2023-05-07T08:57:03;17.70;99.90
21176;DHT22;10746;50.178;8.186;2023-05-07T08:59:30;17.80;99.90
21176;DHT22;10746;50.178;8.186;2023-05-07T09:01:56;18.10;99.90
21176;DHT22;10746;50.178;8.186;2023-05-07T09:04:23;18.10;99.90
21176;DHT22;10746;50.178;8.186;2023-05-07T09:06:51;18.00;99.90
21176;DHT22;10746;50.178;8.186;2023-05-07T09:09:18;18.20;99.90
21176;DHT22;10746;50.178;8.186;2023-05-07T09:11:45;18.30;99.90
21176;DHT22;10746;50.178;8.186;2023-05-07T09:14:11;18.40;99.90
21176;DHT22;10746;50.178;8.186;2023-05-07T09:16:38;18.90;99.90
21176;DHT22;10746;50.178;8.186;2023-05-07T09:19:05;19.00;99.90
21176;DHT22;10746;50.178;8.186;2023-05-07T09:21:31;19.00;99.90
21176;DHT22;10746;50.178;8.186;2023-05-07T09:23:59;18.50;99.90
21176;DHT22;10746;50.178;8.186;2023-05-07T09:26:26;18.80;99.90
21176;DHT22;10746;50.178;8.186;2023-05-07T09:28:53;18.90;99.90
21176;DHT22;10746;50.178;8.186;2023-05-07T09:31:20;18.90;99.90
21176;DHT22;10746;50.178;8.186;2023-05-07T09:33:48;18.70;99.90
21176;DHT22;10746;50.178;8.186;2023-05-07T09:36:16;18.80;99.90
21176;DHT22;10746;50.178;8.186;2023-05-07T09:38:42;19.00;99.90
21176;DHT22;10746;50.178;8.186;2023-05-07T09:41:12;19.30;99.90
21176;DHT22;10746;50.178;8.186;2023-05-07T09:43:40;19.50;99.90
21176;DHT22;10746;50.178;8.186;2023-05-07T09:46:10;19.50;99.90
21176;DHT22;10746;50.178;8.186;2023-05-07T09:48:38;19.30;99.90
21176;DHT22;10746;50.178;8.186;2023-05-07T09:51:14;19.80;99.90
21176;DHT22;10746;50.178;8.186;2023-05-07T09:53:43;20.00;99.90
21176;DHT22;10746;50.178;8.186;2023-05-07T09:56:13;19.70;99.90
21176;DHT22;10746;50.178;8.186;2023-05-07T09:58:42;19.90;99.90
21176;DHT22;10746;50.178;8.186;2023-05-07T10:01:11;19.60;99.90
21176;DHT22;10746;50.178;8.186;2023-05-07T10:03:40;19.80;99.90
21176;DHT22;10746;50.178;8.186;2023-05-07T10:06:08;19.90;99.90
21176;DHT22;10746;50.178;8.186;2023-05-07T10:08:35;20.30;99.90
21176;DHT22;10746;50.178;8.186;2023-05-07T10:11:03;20.70;99.90
21176;DHT22;10746;50.178;8.186;2023-05-07T10:13:32;20.70;99.90
21176;DHT22;10746;50.178;8.186;2023-05-07T10:16:00;20.00;99.90
21176;DHT22;10746;50.178;8.186;2023-05-07T10:18:28;19.80;99.90
21176;DHT22;10746;50.178;8.186;2023-05-07T10:21:04;20.00;99.90
21176;DHT22;10746;50.178;8.186;2023-05-07T10:23:33;20.00;99.90
21176;DHT22;10746;50.178;8.186;2023-05-07T10:26:02;19.90;99.90
21176;DHT22;10746;50.178;8.186;2023-05-07T10:28:33;20.20;99.90
21176;DHT22;10746;50.178;8.186;2023-05-07T10:31:20;20.00;99.90
21176;DHT22;10746;50.178;8.186;2023-05-07T10:33:51;20.40;99.90
21176;DHT22;10746;50.178;8.186;2023-05-07T10:36:19;20.60;99.90
21176;DHT22;10746;50.178;8.186;2023-05-07T10:38:47;20.60;99.90
21176;DHT22;10746;50.178;8.186;2023-05-07T10:41:14;20.60;99.90
21176;DHT22;10746;50.178;8.186;2023-05-07T10:43:44;20.70;99.90
21176;DHT22;10746;50.178;8.186;2023-05-07T10:46:15;21.00;99.90
21176;DHT22;10746;50.178;8.186;2023-05-07T10:49:06;20.90;99.90
21176;DHT22;10746;50.178;8.186;2023-05-07T10:51:33;21.00;99.90
21176;DHT22;10746;50.178;8.186;2023-05-07T10:54:20;20.90;99.90
21176;DHT22;10746;50.178;8.186;2023-05-07T10:56:47;20.80;99.90
21176;DHT22;10746;50.178;8.186;2023-05-07T10:59:36;20.70;99.90
21176;DHT22;10746;50.178;8.186;2023-05-07T11:02:09;20.80;99.90
21176;DHT22;10746;50.178;8.186;2023-05-07T11:04:37;20.60;99.90
21176;DHT22;10746;50.178;8.186;2023-05-07T11:07:23;20.50;99.90
21176;DHT22;10746;50.178;8.186;2023-05-07T11:09:58;20.40;99.90
21176;DHT22;10746;50.178;8.186;2023-05-07T11:12:54;20.20;99.90
21176;DHT22;10746;50.178;8.186;2023-05-07T11:15:39;20.20;99.90
21176;DHT22;10746;50.178;8.186;2023-05-07T11:18:09;19.90;99.90
21176;DHT22;10746;50.178;8.186;2023-05-07T11:21:03;20.00;99.90
21176;DHT22;10746;50.178;8.186;2023-05-07T11:26:47;19.80;99.90
21176;DHT22;10746;50.178;8.186;2023-05-07T11:29:16;19.60;99.90
21176;DHT22;10746;50.178;8.186;2023-05-07T11:31:48;19.70;99.90
21176;DHT22;10746;50.178;8.186;2023-05-07T11:34:21;19.90;99.90
21176;DHT22;10746;50.178;8.186;2023-05-07T11:36:48;20.10;99.90
21176;DHT22;10746;50.178;8.186;2023-05-07T11:39:28;20.10;99.90
21176;DHT22;10746;50.178;8.186;2023-05-07T11:41:55;19.80;99.90
21176;DHT22;10746;50.178;8.186;2023-05-07T11:44:22;19.80;99.90
21176;DHT22;10746;50.178;8.186;2023-05-07T11:46:50;19.70;99.90
21176;DHT22;10746;50.178;8.186;2023-05-07T11:49:17;19.80;99.90
21176;DHT22;10746;50.178;8.186;2023-05-07T11:51:44;19.80;99.90
21176;DHT22;10746;50.178;8.186;2023-05-07T11:54:15;19.70;99.90
21176;DHT22;10746;50.178;8.186;2023-05-07T11:56:42;19.60;99.90
21176;DHT22;10746;50.178;8.186;2023-05-07T11:59:10;19.90;99.90
21176;DHT22;10746;50.178;8.186;2023-05-07T12:01:36;20.10;99.90
21176;DHT22;10746;50.178;8.186;2023-05-07T12:04:05;20.00;99.90
21176;DHT22;10746;50.178;8.186;2023-05-07T12:06:36;20.20;99.90
21176;DHT22;10746;50.178;8.186;2023-05-07T12:09:03;20.30;99.90
21176;DHT22;10746;50.178;8.186;2023-05-07T12:11:30;20.20;99.90
21176;DHT22;10746;50.178;8.186;2023-05-07T12:13:57;19.90;99.90
21176;DHT22;10746;50.178;8.186;2023-05-07T12:16:23;20.20;99.90
21176;DHT22;10746;50.178;8.186;2023-05-07T12:18:51;20.20;99.90
21176;DHT22;10746;50.178;8.186;2023-05-07T12:21:21;20.50;99.90
21176;DHT22;10746;50.178;8.186;2023-05-07T12:23:48;20.70;99.90
21176;DHT22;10746;50.178;8.186;2023-05-07T12:26:15;20.70;99.90
21176;DHT22;10746;50.178;8.186;2023-05-07T12:28:42;21.00;99.90
21176;DHT22;10746;50.178;8.186;2023-05-07T12:31:09;21.20;99.90
21176;DHT22;10746;50.178;8.186;2023-05-07T12:33:36;20.90;99.90
21176;DHT22;10746;50.178;8.186;2023-05-07T12:36:05;20.40;99.90
21176;DHT22;10746;50.178;8.186;2023-05-07T12:38:38;20.10;99.90
21176;DHT22;10746;50.178;8.186;2023-05-07T12:41:06;20.10;99.90
21176;DHT22;10746;50.178;8.186;2023-05-07T12:43:34;20.30;99.90
21176;DHT22;10746;50.178;8.186;2023-05-07T12:46:03;20.00;99.90
21176;DHT22;10746;50.178;8.186;2023-05-07T12:48:30;19.80;99.90
21176;DHT22;10746;50.178;8.186;2023-05-07T12:50:58;19.80;99.90
21176;DHT22;10746;50.178;8.186;2023-05-07T12:53:26;19.80;99.90
21176;DHT22;10746;50.178;8.186;2023-05-07T12:55:56;19.80;99.90
21176;DHT22;10746;50.178;8.186;2023-05-07T12:58:25;20.10;99.90
21176;DHT22;10746;50.178;8.186;2023-05-07T13:00:52;20.20;99.90
21176;DHT22;10746;50.178;8.186;2023-05-07T13:03:23;20.70;99.90
21176;DHT22;10746;50.178;8.186;2023-05-07T13:05:51;21.00;99.90
21176;DHT22;10746;50.178;8.186;2023-05-07T13:08:28;21.40;99.90
21176;DHT22;10746;50.178;8.186;2023-05-07T13:10:57;21.00;99.90
21176;DHT22;10746;50.178;8.186;2023-05-07T13:13:25;20.80;99.90
21176;DHT22;10746;50.178;8.186;2023-05-07T13:15:51;20.40;99.90
21176;DHT22;10746;50.178;8.186;2023-05-07T13:18:18;20.10;99.90
21176;DHT22;10746;50.178;8.186;2023-05-07T13:20:45;20.20;99.90
21176;DHT22;10746;50.178;8.186;2023-05-07T13:23:11;20.10;99.90
21176;DHT22;10746;50.178;8.186;2023-05-07T13:25:38;20.40;99.90
21176;DHT22;10746;50.178;8.186;2023-05-07T13:28:06;20.80;99.90
21176;DHT22;10746;50.178;8.186;2023-05-07T13:30:33;21.10;99.90
21176;DHT22;10746;50.178;8.186;2023-05-07T13:33:00;21.00;99.90
21176;DHT22;10746;50.178;8.186;2023-05-07T13:35:27;20.40;99.90
21176;DHT22;10746;50.178;8.186;2023-05-07T13:37:54;20.30;99.90
21176;DHT22;10746;50.178;8.186;2023-05-07T13:40:21;20.70;99.90
21176;DHT22;10746;50.178;8.186;2023-05-07T13:42:48;20.60;99.90
21176;DHT22;10746;50.178;8.186;2023-05-07T13:45:17;20.30;99.90
21176;DHT22;10746;50.178;8.186;2023-05-07T13:47:44;20.10;99.90
21176;DHT22;10746;50.178;8.186;2023-05-07T13:50:11;20.20;99.90
21176;DHT22;10746;50.178;8.186;2023-05-07T13:52:40;20.60;99.90
21176;DHT22;10746;50.178;8.186;2023-05-07T13:55:08;20.60;99.90
21176;DHT22;10746;50.178;8.186;2023-05-07T13:57:35;20.90;99.90
21176;DHT22;10746;50.178;8.186;2023-05-07T14:00:02;21.20;99.90
21176;DHT22;10746;50.178;8.186;2023-05-07T14:02:31;21.30;99.90
21176;DHT22;10746;50.178;8.186;2023-05-07T14:04:58;21.60;99.90
21176;DHT22;10746;50.178;8.186;2023-05-07T14:07:25;21.70;99.90
21176;DHT22;10746;50.178;8.186;2023-05-07T14:09:51;21.10;99.90
21176;DHT22;10746;50.178;8.186;2023-05-07T14:12:18;21.10;99.90
21176;DHT22;10746;50.178;8.186;2023-05-07T14:14:45;21.10;99.90
21176;DHT22;10746;50.178;8.186;2023-05-07T14:17:12;20.70;99.90
21176;DHT22;10746;50.178;8.186;2023-05-07T14:19:40;20.70;99.90
21176;DHT22;10746;50.178;8.186;2023-05-07T14:22:07;20.80;99.90
21176;DHT22;10746;50.178;8.186;2023-05-07T14:24:33;20.60;99.90
21176;DHT22;10746;50.178;8.186;2023-05-07T14:27:00;20.40;99.90
21176;DHT22;10746;50.178;8.186;2023-05-07T14:29:27;20.50;99.90
21176;DHT22;10746;50.178;8.186;2023-05-07T14:31:54;20.50;99.90
21176;DHT22;10746;50.178;8.186;2023-05-07T14:34:20;20.70;99.90
21176;DHT22;10746;50.178;8.186;2023-05-07T14:36:48;20.60;99.90
21176;DHT22;10746;50.178;8.186;2023-05-07T14:39:15;20.70;99.90
21176;DHT22;10746;50.178;8.186;2023-05-07T14:41:42;20.60;99.90
21176;DHT22;10746;50.178;8.186;2023-05-07T14:44:09;20.60;99.90
21176;DHT22;10746;50.178;8.186;2023-05-07T14:46:35;20.50;99.90
21176;DHT22;10746;50.178;8.186;2023-05-07T14:49:02;20.40;99.90
21176;DHT22;10746;50.178;8.186;2023-05-07T14:51:29;20.30;99.90
21176;DHT22;10746;50.178;8.186;2023-05-07T14:53:57;20.40;99.90
21176;DHT22;10746;50.178;8.186;2023-05-07T14:56:25;20.40;99.90
21176;DHT22;10746;50.178;8.186;2023-05-07T14:58:52;20.60;99.90
21176;DHT22;10746;50.178;8.186;2023-05-07T15:01:20;20.50;99.90
21176;DHT22;10746;50.178;8.186;2023-05-07T15:03:47;20.50;99.90
21176;DHT22;10746;50.178;8.186;2023-05-07T15:06:13;20.50;99.90
21176;DHT22;10746;50.178;8.186;2023-05-07T15:08:41;20.50;99.90
21176;DHT22;10746;50.178;8.186;2023-05-07T15:11:09;20.50;99.90
21176;DHT22;10746;50.178;8.186;2023-05-07T15:13:35;20.40;99.90
21176;DHT22;10746;50.178;8.186;2023-05-07T15:16:02;20.30;99.90
21176;DHT22;10746;50.178;8.186;2023-05-07T15:18:29;20.30;99.90
21176;DHT22;10746;50.178;8.186;2023-05-07T15:20:57;20.30;99.90
21176;DHT22;10746;50.178;8.186;2023-05-07T15:23:24;20.40;99.90
21176;DHT22;10746;50.178;8.186;2023-05-07T15:25:51;20.50;99.90
21176;DHT22;10746;50.178;8.186;2023-05-07T15:28:19;20.60;99.90
21176;DHT22;10746;50.178;8.186;2023-05-07T15:30:46;20.70;99.90
21176;DHT22;10746;50.178;8.186;2023-05-07T15:33:13;21.00;99.90
21176;DHT22;10746;50.178;8.186;2023-05-07T15:35:40;21.00;99.90
21176;DHT22;10746;50.178;8.186;2023-05-07T15:38:06;20.90;99.90
21176;DHT22;10746;50.178;8.186;2023-05-07T15:40:34;20.70;99.90